sensor_id;sensor_type;location;lat;lon;timestamp;P1;durP1;ratioP1;P2;durP2;ratioP2
24143;SDS011;12307;50.828;6.080;2023-12-20T00:02:16;0.80;;;0.80;;
24143;SDS011;12307;50.828;6.080;2023-12-20T00:04:42;0.70;;;0.70;;
24143;SDS011;12307;50.828;6.080;2023-12-20T00:07:07;1.02;;;0.90;;
24143;SDS011;12307;50.828;6.080;2023-12-20T00:09:33;1.73;;;0.80;;
24143;SDS011;12307;50.828;6.080;2023-12-20T00:12:00;0.80;;;0.70;;
24143;SDS011;12307;50.828;6.080;2023-12-20T00:14:26;1.00;;;0.90;;
24143;SDS011;12307;50.828;6.080;2023-12-20T00:16:52;1.00;;;0.90;;
24143;SDS011;12307;50.828;6.080;2023-12-20T00:19:17;0.80;;;0.80;;
24143;SDS011;12307;50.828;6.080;2023-12-20T00:21:43;0.80;;;0.65;;
24143;SDS011;12307;50.828;6.080;2023-12-20T00:24:09;0.88;;;0.73;;
24143;SDS011;12307;50.828;6.080;2023-12-20T00:26:35;0.88;;;0.88;;
24143;SDS011;12307;50.828;6.080;2023-12-20T00:29:02;0.70;;;0.70;;
24143;SDS011;12307;50.828;6.080;2023-12-20T00:31:28;0.70;;;0.70;;
24143;SDS011;12307;50.828;6.080;2023-12-20T00:33:53;0.80;;;0.70;;
24143;SDS011;12307;50.828;6.080;2023-12-20T00:36:19;0.75;;;0.70;;
24143;SDS011;12307;50.828;6.080;2023-12-20T00:38:45;0.73;;;0.73;;
24143;SDS011;12307;50.828;6.080;2023-12-20T00:41:11;0.90;;;0.80;;
24143;SDS011;12307;50.828;6.080;2023-12-20T00:43:36;0.85;;;0.70;;
24143;SDS011;12307;50.828;6.080;2023-12-20T00:46:04;0.88;;;0.80;;
24143;SDS011;12307;50.828;6.080;2023-12-20T00:48:30;0.82;;;0.75;;
24143;SDS011;12307;50.828;6.080;2023-12-20T00:50:56;0.95;;;0.82;;
24143;SDS011;12307;50.828;6.080;2023-12-20T00:53:22;1.00;;;1.00;;
24143;SDS011;12307;50.828;6.080;2023-12-20T00:55:48;0.50;;;0.50;;
24143;SDS011;12307;50.828;6.080;2023-12-20T00:58:15;0.60;;;0.60;;
24143;SDS011;12307;50.828;6.080;2023-12-20T01:00:41;0.85;;;0.73;;
24143;SDS011;12307;50.828;6.080;2023-12-20T01:03:09;1.17;;;0.85;;
24143;SDS011;12307;50.828;6.080;2023-12-20T01:05:35;0.70;;;0.70;;
24143;SDS011;12307;50.828;6.080;2023-12-20T01:08:00;0.70;;;0.70;;
24143;SDS011;12307;50.828;6.080;2023-12-20T01:10:28;0.50;;;0.50;;
24143;SDS011;12307;50.828;6.080;2023-12-20T01:12:54;0.70;;;0.70;;
24143;SDS011;12307;50.828;6.080;2023-12-20T01:15:20;0.93;;;0.70;;
24143;SDS011;12307;50.828;6.080;2023-12-20T01:17:46;0.82;;;0.70;;
24143;SDS011;12307;50.828;6.080;2023-12-20T01:20:13;1.77;;;0.77;;
24143;SDS011;12307;50.828;6.080;2023-12-20T01:22:39;0.77;;;0.75;;
24143;SDS011;12307;50.828;6.080;2023-12-20T01:25:05;1.27;;;0.80;;
24143;SDS011;12307;50.828;6.080;2023-12-20T01:27:31;0.77;;;0.70;;
24143;SDS011;12307;50.828;6.080;2023-12-20T01:29:57;1.20;;;0.80;;
24143;SDS011;12307;50.828;6.080;2023-12-20T01:32:23;0.80;;;0.70;;
24143;SDS011;12307;50.828;6.080;2023-12-20T01:34:49;0.85;;;0.65;;
24143;SDS011;12307;50.828;6.080;2023-12-20T01:37:16;1.15;;;0.80;;
24143;SDS011;12307;50.828;6.080;2023-12-20T01:39:42;0.70;;;0.70;;
24143;SDS011;12307;50.828;6.080;2023-12-20T01:42:07;0.80;;;0.60;;
24143;SDS011;12307;50.828;6.080;2023-12-20T01:44:33;0.75;;;0.60;;
24143;SDS011;12307;50.828;6.080;2023-12-20T01:46:59;0.63;;;0.60;;
24143;SDS011;12307;50.828;6.080;2023-12-20T01:49:25;1.00;;;0.90;;
24143;SDS011;12307;50.828;6.080;2023-12-20T01:51:51;0.65;;;0.60;;
24143;SDS011;12307;50.828;6.080;2023-12-20T01:54:18;1.05;;;0.70;;
24143;SDS011;12307;50.828;6.080;2023-12-20T01:56:45;0.82;;;0.70;;
24143;SDS011;12307;50.828;6.080;2023-12-20T01:59:11;0.82;;;0.80;;
24143;SDS011;12307;50.828;6.080;2023-12-20T02:01:37;1.70;;;0.70;;
24143;SDS011;12307;50.828;6.080;2023-12-20T02:04:03;1.65;;;0.70;;
24143;SDS011;12307;50.828;6.080;2023-12-20T02:06:29;1.23;;;0.70;;
24143;SDS011;12307;50.828;6.080;2023-12-20T02:08:57;0.82;;;0.60;;
24143;SDS011;12307;50.828;6.080;2023-12-20T02:11:25;0.70;;;0.70;;
24143;SDS011;12307;50.828;6.080;2023-12-20T02:13:51;1.30;;;0.70;;
24143;SDS011;12307;50.828;6.080;2023-12-20T02:16:17;1.58;;;0.73;;
24143;SDS011;12307;50.828;6.080;2023-12-20T02:18:43;1.10;;;0.80;;
24143;SDS011;12307;50.828;6.080;2023-12-20T02:21:09;1.45;;;0.85;;
24143;SDS011;12307;50.828;6.080;2023-12-20T02:23:36;1.50;;;0.70;;
24143;SDS011;12307;50.828;6.080;2023-12-20T02:26:02;0.90;;;0.70;;
24143;SDS011;12307;50.828;6.080;2023-12-20T02:28:29;1.00;;;0.60;;
24143;SDS011;12307;50.828;6.080;2023-12-20T02:30:55;1.25;;;0.77;;
24143;SDS011;12307;50.828;6.080;2023-12-20T02:33:21;1.58;;;0.60;;
24143;SDS011;12307;50.828;6.080;2023-12-20T02:35:47;2.33;;;0.70;;
24143;SDS011;12307;50.828;6.080;2023-12-20T02:38:13;0.75;;;0.60;;
24143;SDS011;12307;50.828;6.080;2023-12-20T02:40:40;0.88;;;0.70;;
24143;SDS011;12307;50.828;6.080;2023-12-20T02:43:05;0.80;;;0.60;;
24143;SDS011;12307;50.828;6.080;2023-12-20T02:45:31;1.08;;;0.60;;
24143;SDS011;12307;50.828;6.080;2023-12-20T02:47:57;1.50;;;0.80;;
24143;SDS011;12307;50.828;6.080;2023-12-20T02:50:23;1.70;;;0.70;;
24143;SDS011;12307;50.828;6.080;2023-12-20T02:52:48;1.35;;;0.70;;
24143;SDS011;12307;50.828;6.080;2023-12-20T02:55:14;0.73;;;0.63;;
24143;SDS011;12307;50.828;6.080;2023-12-20T02:57:41;1.00;;;0.60;;
24143;SDS011;12307;50.828;6.080;2023-12-20T03:00:07;0.93;;;0.65;;
24143;SDS011;12307;50.828;6.080;2023-12-20T03:02:34;1.52;;;0.70;;
24143;SDS011;12307;50.828;6.080;2023-12-20T03:04:59;1.38;;;0.60;;
24143;SDS011;12307;50.828;6.080;2023-12-20T03:07:25;1.33;;;0.80;;
24143;SDS011;12307;50.828;6.080;2023-12-20T03:09:51;1.67;;;0.80;;
24143;SDS011;12307;50.828;6.080;2023-12-20T03:12:17;1.65;;;0.73;;
24143;SDS011;12307;50.828;6.080;2023-12-20T03:14:44;1.23;;;0.85;;
24143;SDS011;12307;50.828;6.080;2023-12-20T03:17:10;1.38;;;0.80;;
24143;SDS011;12307;50.828;6.080;2023-12-20T03:19:36;1.30;;;0.80;;
24143;SDS011;12307;50.828;6.080;2023-12-20T03:22:01;1.10;;;0.80;;
24143;SDS011;12307;50.828;6.080;2023-12-20T03:24:27;0.80;;;0.60;;
24143;SDS011;12307;50.828;6.080;2023-12-20T03:26:53;0.90;;;0.68;;
24143;SDS011;12307;50.828;6.080;2023-12-20T03:29:19;1.42;;;0.77;;
24143;SDS011;12307;50.828;6.080;2023-12-20T03:31:46;1.30;;;0.80;;
24143;SDS011;12307;50.828;6.080;2023-12-20T03:34:11;1.67;;;0.85;;
24143;SDS011;12307;50.828;6.080;2023-12-20T03:36:37;0.75;;;0.57;;
24143;SDS011;12307;50.828;6.080;2023-12-20T03:39:03;0.95;;;0.88;;
24143;SDS011;12307;50.828;6.080;2023-12-20T03:41:30;0.93;;;0.55;;
24143;SDS011;12307;50.828;6.080;2023-12-20T03:43:55;1.00;;;0.60;;
24143;SDS011;12307;50.828;6.080;2023-12-20T03:46:21;1.10;;;0.70;;
24143;SDS011;12307;50.828;6.080;2023-12-20T03:48:48;1.02;;;0.70;;
24143;SDS011;12307;50.828;6.080;2023-12-20T03:51:14;2.13;;;0.93;;
24143;SDS011;12307;50.828;6.080;2023-12-20T03:53:41;0.90;;;0.60;;
24143;SDS011;12307;50.828;6.080;2023-12-20T03:56:06;0.90;;;0.68;;
24143;SDS011;12307;50.828;6.080;2023-12-20T03:58:32;1.42;;;0.70;;
24143;SDS011;12307;50.828;6.080;2023-12-20T04:00:58;0.80;;;0.63;;
24143;SDS011;12307;50.828;6.080;2023-12-20T04:03:24;1.60;;;0.80;;
24143;SDS011;12307;50.828;6.080;2023-12-20T04:05:51;1.63;;;0.73;;
24143;SDS011;12307;50.828;6.080;2023-12-20T04:08:16;1.08;;;0.77;;
24143;SDS011;12307;50.828;6.080;2023-12-20T04:10:42;1.67;;;0.63;;
24143;SDS011;12307;50.828;6.080;2023-12-20T04:13:08;2.15;;;0.70;;
24143;SDS011;12307;50.828;6.080;2023-12-20T04:15:33;1.25;;;0.70;;
24143;SDS011;12307;50.828;6.080;2023-12-20T04:17:59;1.02;;;0.70;;
24143;SDS011;12307;50.828;6.080;2023-12-20T04:20:25;1.20;;;0.70;;
24143;SDS011;12307;50.828;6.080;2023-12-20T04:22:52;1.88;;;0.80;;
24143;SDS011;12307;50.828;6.080;2023-12-20T04:25:18;1.40;;;0.80;;
24143;SDS011;12307;50.828;6.080;2023-12-20T04:27:43;1.15;;;0.77;;
24143;SDS011;12307;50.828;6.080;2023-12-20T04:30:09;2.10;;;1.02;;
24143;SDS011;12307;50.828;6.080;2023-12-20T04:32:35;1.10;;;0.80;;
24143;SDS011;12307;50.828;6.080;2023-12-20T04:35:01;0.93;;;0.60;;
24143;SDS011;12307;50.828;6.080;2023-12-20T04:37:27;2.33;;;0.80;;
24143;SDS011;12307;50.828;6.080;2023-12-20T04:39:54;0.70;;;0.55;;
24143;SDS011;12307;50.828;6.080;2023-12-20T04:42:20;0.90;;;0.80;;
24143;SDS011;12307;50.828;6.080;2023-12-20T04:44:45;1.35;;;0.60;;
24143;SDS011;12307;50.828;6.080;2023-12-20T04:47:11;1.02;;;0.55;;
24143;SDS011;12307;50.828;6.080;2023-12-20T04:49:37;2.05;;;0.70;;
24143;SDS011;12307;50.828;6.080;2023-12-20T04:52:03;1.63;;;0.90;;
24143;SDS011;12307;50.828;6.080;2023-12-20T04:54:29;1.23;;;0.80;;
24143;SDS011;12307;50.828;6.080;2023-12-20T04:56:56;1.80;;;0.70;;
24143;SDS011;12307;50.828;6.080;2023-12-20T04:59:21;0.90;;;0.60;;
24143;SDS011;12307;50.828;6.080;2023-12-20T05:01:47;0.82;;;0.73;;
24143;SDS011;12307;50.828;6.080;2023-12-20T05:04:13;1.65;;;0.70;;
24143;SDS011;12307;50.828;6.080;2023-12-20T05:06:39;0.90;;;0.80;;
24143;SDS011;12307;50.828;6.080;2023-12-20T05:09:04;1.30;;;0.68;;
24143;SDS011;12307;50.828;6.080;2023-12-20T05:11:30;1.10;;;0.70;;
24143;SDS011;12307;50.828;6.080;2023-12-20T05:13:57;1.92;;;0.80;;
24143;SDS011;12307;50.828;6.080;2023-12-20T05:16:23;1.48;;;0.63;;
24143;SDS011;12307;50.828;6.080;2023-12-20T05:18:48;1.15;;;0.80;;
24143;SDS011;12307;50.828;6.080;2023-12-20T05:21:17;1.20;;;0.68;;
24143;SDS011;12307;50.828;6.080;2023-12-20T05:23:43;1.05;;;0.70;;
24143;SDS011;12307;50.828;6.080;2023-12-20T05:26:09;0.98;;;0.60;;
24143;SDS011;12307;50.828;6.080;2023-12-20T05:28:35;1.30;;;0.82;;
24143;SDS011;12307;50.828;6.080;2023-12-20T05:31:02;1.00;;;0.75;;
24143;SDS011;12307;50.828;6.080;2023-12-20T05:33:28;1.63;;;0.85;;
24143;SDS011;12307;50.828;6.080;2023-12-20T05:35:53;1.48;;;0.70;;
24143;SDS011;12307;50.828;6.080;2023-12-20T05:38:19;2.67;;;0.90;;
24143;SDS011;12307;50.828;6.080;2023-12-20T05:40:45;1.65;;;0.70;;
24143;SDS011;12307;50.828;6.080;2023-12-20T05:43:11;1.73;;;0.70;;
24143;SDS011;12307;50.828;6.080;2023-12-20T05:45:36;1.70;;;1.00;;
24143;SDS011;12307;50.828;6.080;2023-12-20T05:48:04;1.83;;;0.80;;
24143;SDS011;12307;50.828;6.080;2023-12-20T05:50:30;1.05;;;0.77;;
24143;SDS011;12307;50.828;6.080;2023-12-20T05:52:56;2.55;;;0.82;;
24143;SDS011;12307;50.828;6.080;2023-12-20T05:55:21;1.67;;;0.90;;
24143;SDS011;12307;50.828;6.080;2023-12-20T05:57:47;2.15;;;0.80;;
24143;SDS011;12307;50.828;6.080;2023-12-20T06:00:13;1.90;;;0.75;;
24143;SDS011;12307;50.828;6.080;2023-12-20T06:02:40;1.55;;;0.70;;
24143;SDS011;12307;50.828;6.080;2023-12-20T06:05:07;1.85;;;0.80;;
24143;SDS011;12307;50.828;6.080;2023-12-20T06:07:33;1.83;;;0.90;;
24143;SDS011;12307;50.828;6.080;2023-12-20T06:09:59;1.35;;;0.70;;
24143;SDS011;12307;50.828;6.080;2023-12-20T06:12:25;1.38;;;0.70;;
24143;SDS011;12307;50.828;6.080;2023-12-20T06:14:52;1.42;;;0.63;;
24143;SDS011;12307;50.828;6.080;2023-12-20T06:17:18;1.38;;;0.80;;
24143;SDS011;12307;50.828;6.080;2023-12-20T06:19:43;1.73;;;0.75;;
24143;SDS011;12307;50.828;6.080;2023-12-20T06:22:14;1.17;;;0.75;;
24143;SDS011;12307;50.828;6.080;2023-12-20T06:24:40;1.10;;;0.73;;
24143;SDS011;12307;50.828;6.080;2023-12-20T06:27:05;1.63;;;0.75;;
24143;SDS011;12307;50.828;6.080;2023-12-20T06:29:31;1.27;;;0.70;;
24143;SDS011;12307;50.828;6.080;2023-12-20T06:31:57;1.80;;;0.90;;
24143;SDS011;12307;50.828;6.080;2023-12-20T06:34:22;1.88;;;0.88;;
24143;SDS011;12307;50.828;6.080;2023-12-20T06:36:48;1.00;;;0.70;;
24143;SDS011;12307;50.828;6.080;2023-12-20T06:39:15;1.20;;;0.70;;
24143;SDS011;12307;50.828;6.080;2023-12-20T06:41:41;1.50;;;0.80;;
24143;SDS011;12307;50.828;6.080;2023-12-20T06:44:07;2.28;;;1.00;;
24143;SDS011;12307;50.828;6.080;2023-12-20T06:46:33;1.50;;;0.70;;
24143;SDS011;12307;50.828;6.080;2023-12-20T06:49:02;1.45;;;0.82;;
24143;SDS011;12307;50.828;6.080;2023-12-20T06:51:27;2.28;;;1.00;;
24143;SDS011;12307;50.828;6.080;2023-12-20T06:53:53;1.67;;;0.90;;
24143;SDS011;12307;50.828;6.080;2023-12-20T06:56:20;1.42;;;0.70;;
24143;SDS011;12307;50.828;6.080;2023-12-20T06:58:46;1.77;;;0.85;;
24143;SDS011;12307;50.828;6.080;2023-12-20T07:01:12;1.85;;;0.70;;
24143;SDS011;12307;50.828;6.080;2023-12-20T07:03:38;1.48;;;0.77;;
24143;SDS011;12307;50.828;6.080;2023-12-20T07:06:05;1.02;;;0.70;;
24143;SDS011;12307;50.828;6.080;2023-12-20T07:08:31;2.65;;;0.90;;
24143;SDS011;12307;50.828;6.080;2023-12-20T07:10:56;2.20;;;0.90;;
24143;SDS011;12307;50.828;6.080;2023-12-20T07:13:23;1.33;;;0.70;;
24143;SDS011;12307;50.828;6.080;2023-12-20T07:15:49;2.72;;;1.10;;
24143;SDS011;12307;50.828;6.080;2023-12-20T07:18:15;1.33;;;0.70;;
24143;SDS011;12307;50.828;6.080;2023-12-20T07:20:42;1.58;;;0.90;;
24143;SDS011;12307;50.828;6.080;2023-12-20T07:23:08;1.63;;;0.77;;
24143;SDS011;12307;50.828;6.080;2023-12-20T07:25:34;1.60;;;0.80;;
24143;SDS011;12307;50.828;6.080;2023-12-20T07:27:59;1.90;;;1.00;;
24143;SDS011;12307;50.828;6.080;2023-12-20T07:30:27;1.83;;;1.00;;
24143;SDS011;12307;50.828;6.080;2023-12-20T07:32:53;1.70;;;0.80;;
24143;SDS011;12307;50.828;6.080;2023-12-20T07:35:18;1.45;;;0.82;;
24143;SDS011;12307;50.828;6.080;2023-12-20T07:37:44;1.52;;;0.90;;
24143;SDS011;12307;50.828;6.080;2023-12-20T07:40:10;1.60;;;1.00;;
24143;SDS011;12307;50.828;6.080;2023-12-20T07:42:36;1.52;;;0.93;;
24143;SDS011;12307;50.828;6.080;2023-12-20T07:45:02;2.08;;;0.93;;
24143;SDS011;12307;50.828;6.080;2023-12-20T07:47:30;2.05;;;1.00;;
24143;SDS011;12307;50.828;6.080;2023-12-20T07:49:55;1.73;;;0.90;;
24143;SDS011;12307;50.828;6.080;2023-12-20T07:52:21;1.80;;;0.80;;
24143;SDS011;12307;50.828;6.080;2023-12-20T07:54:47;1.83;;;0.90;;
24143;SDS011;12307;50.828;6.080;2023-12-20T07:57:13;1.25;;;0.80;;
24143;SDS011;12307;50.828;6.080;2023-12-20T07:59:39;2.22;;;0.90;;
24143;SDS011;12307;50.828;6.080;2023-12-20T08:02:04;0.98;;;0.70;;
24143;SDS011;12307;50.828;6.080;2023-12-20T08:04:32;1.92;;;0.90;;
24143;SDS011;12307;50.828;6.080;2023-12-20T08:06:58;1.92;;;0.82;;
24143;SDS011;12307;50.828;6.080;2023-12-20T08:09:25;1.98;;;1.10;;
24143;SDS011;12307;50.828;6.080;2023-12-20T08:11:51;2.20;;;1.00;;
24143;SDS011;12307;50.828;6.080;2023-12-20T08:14:16;1.83;;;0.90;;
24143;SDS011;12307;50.828;6.080;2023-12-20T08:16:42;1.17;;;0.70;;
24143;SDS011;12307;50.828;6.080;2023-12-20T08:19:08;1.80;;;0.80;;
24143;SDS011;12307;50.828;6.080;2023-12-20T08:21:35;2.50;;;0.93;;
24143;SDS011;12307;50.828;6.080;2023-12-20T08:24:00;1.80;;;1.00;;
24143;SDS011;12307;50.828;6.080;2023-12-20T08:26:26;2.45;;;0.80;;
24143;SDS011;12307;50.828;6.080;2023-12-20T08:28:52;2.90;;;1.00;;
24143;SDS011;12307;50.828;6.080;2023-12-20T08:31:18;2.38;;;1.00;;
24143;SDS011;12307;50.828;6.080;2023-12-20T08:33:44;2.35;;;1.00;;
24143;SDS011;12307;50.828;6.080;2023-12-20T08:36:11;1.85;;;0.90;;
24143;SDS011;12307;50.828;6.080;2023-12-20T08:38:38;2.40;;;1.00;;
24143;SDS011;12307;50.828;6.080;2023-12-20T08:41:04;2.10;;;0.90;;
24143;SDS011;12307;50.828;6.080;2023-12-20T08:43:30;2.47;;;0.90;;
24143;SDS011;12307;50.828;6.080;2023-12-20T08:45:56;2.08;;;1.00;;
24143;SDS011;12307;50.828;6.080;2023-12-20T08:48:22;2.00;;;1.00;;
24143;SDS011;12307;50.828;6.080;2023-12-20T08:50:47;1.80;;;0.80;;
24143;SDS011;12307;50.828;6.080;2023-12-20T08:53:15;2.03;;;1.10;;
24143;SDS011;12307;50.828;6.080;2023-12-20T08:55:43;2.05;;;0.90;;
24143;SDS011;12307;50.828;6.080;2023-12-20T08:58:09;1.83;;;0.90;;
24143;SDS011;12307;50.828;6.080;2023-12-20T09:00:35;1.70;;;0.90;;
24143;SDS011;12307;50.828;6.080;2023-12-20T09:03:00;3.05;;;1.00;;
24143;SDS011;12307;50.828;6.080;2023-12-20T09:05:26;3.63;;;0.98;;
24143;SDS011;12307;50.828;6.080;2023-12-20T09:07:52;2.97;;;1.00;;
24143;SDS011;12307;50.828;6.080;2023-12-20T09:10:18;2.08;;;1.00;;
24143;SDS011;12307;50.828;6.080;2023-12-20T09:12:48;2.85;;;0.90;;
24143;SDS011;12307;50.828;6.080;2023-12-20T09:15:16;3.00;;;1.02;;
24143;SDS011;12307;50.828;6.080;2023-12-20T09:17:42;2.95;;;1.00;;
24143;SDS011;12307;50.828;6.080;2023-12-20T09:20:09;1.77;;;0.93;;
24143;SDS011;12307;50.828;6.080;2023-12-20T09:22:35;1.00;;;0.80;;
24143;SDS011;12307;50.828;6.080;2023-12-20T09:25:01;1.73;;;0.90;;
24143;SDS011;12307;50.828;6.080;2023-12-20T09:27:29;2.83;;;1.15;;
24143;SDS011;12307;50.828;6.080;2023-12-20T09:29:56;1.95;;;1.10;;
24143;SDS011;12307;50.828;6.080;2023-12-20T09:32:22;1.77;;;0.98;;
24143;SDS011;12307;50.828;6.080;2023-12-20T09:34:47;2.10;;;1.00;;
24143;SDS011;12307;50.828;6.080;2023-12-20T09:37:13;2.17;;;1.10;;
24143;SDS011;12307;50.828;6.080;2023-12-20T09:39:39;1.92;;;1.00;;
24143;SDS011;12307;50.828;6.080;2023-12-20T09:42:05;2.28;;;1.00;;
24143;SDS011;12307;50.828;6.080;2023-12-20T09:44:32;2.60;;;1.00;;
24143;SDS011;12307;50.828;6.080;2023-12-20T09:47:03;2.70;;;1.05;;
24143;SDS011;12307;50.828;6.080;2023-12-20T09:49:30;2.83;;;0.85;;
24143;SDS011;12307;50.828;6.080;2023-12-20T09:51:57;1.73;;;0.80;;
24143;SDS011;12307;50.828;6.080;2023-12-20T09:54:24;2.38;;;1.00;;
24143;SDS011;12307;50.828;6.080;2023-12-20T09:56:51;1.83;;;0.90;;
24143;SDS011;12307;50.828;6.080;2023-12-20T09:59:17;2.15;;;1.05;;
24143;SDS011;12307;50.828;6.080;2023-12-20T10:01:43;1.38;;;0.90;;
24143;SDS011;12307;50.828;6.080;2023-12-20T10:04:10;2.13;;;0.90;;
24143;SDS011;12307;50.828;6.080;2023-12-20T10:06:38;2.25;;;1.02;;
24143;SDS011;12307;50.828;6.080;2023-12-20T10:09:04;2.28;;;1.10;;
24143;SDS011;12307;50.828;6.080;2023-12-20T10:11:30;1.55;;;0.90;;
24143;SDS011;12307;50.828;6.080;2023-12-20T10:13:59;2.78;;;1.15;;
24143;SDS011;12307;50.828;6.080;2023-12-20T10:16:27;3.08;;;1.08;;
24143;SDS011;12307;50.828;6.080;2023-12-20T10:18:54;1.77;;;1.00;;
24143;SDS011;12307;50.828;6.080;2023-12-20T10:21:21;2.42;;;1.00;;
24143;SDS011;12307;50.828;6.080;2023-12-20T10:23:48;1.55;;;0.80;;
24143;SDS011;12307;50.828;6.080;2023-12-20T10:26:18;1.50;;;0.90;;
24143;SDS011;12307;50.828;6.080;2023-12-20T10:28:44;1.70;;;0.80;;
24143;SDS011;12307;50.828;6.080;2023-12-20T10:31:10;2.40;;;1.08;;
24143;SDS011;12307;50.828;6.080;2023-12-20T10:33:50;2.63;;;1.02;;
24143;SDS011;12307;50.828;6.080;2023-12-20T10:36:16;2.67;;;0.95;;
24143;SDS011;12307;50.828;6.080;2023-12-20T10:38:43;1.95;;;1.02;;
24143;SDS011;12307;50.828;6.080;2023-12-20T10:41:11;1.10;;;0.70;;
24143;SDS011;12307;50.828;6.080;2023-12-20T10:43:41;2.70;;;0.98;;
24143;SDS011;12307;50.828;6.080;2023-12-20T10:46:07;1.60;;;0.95;;
24143;SDS011;12307;50.828;6.080;2023-12-20T10:48:33;2.00;;;1.08;;
24143;SDS011;12307;50.828;6.080;2023-12-20T10:51:00;1.77;;;0.98;;
24143;SDS011;12307;50.828;6.080;2023-12-20T10:53:26;2.08;;;1.00;;
24143;SDS011;12307;50.828;6.080;2023-12-20T10:55:55;1.40;;;0.73;;
24143;SDS011;12307;50.828;6.080;2023-12-20T10:58:25;2.63;;;1.00;;
24143;SDS011;12307;50.828;6.080;2023-12-20T11:00:52;1.42;;;0.80;;
24143;SDS011;12307;50.828;6.080;2023-12-20T11:03:25;1.83;;;1.00;;
24143;SDS011;12307;50.828;6.080;2023-12-20T11:05:55;2.08;;;0.80;;
24143;SDS011;12307;50.828;6.080;2023-12-20T11:08:28;2.08;;;0.95;;
24143;SDS011;12307;50.828;6.080;2023-12-20T11:11:03;1.30;;;0.82;;
24143;SDS011;12307;50.828;6.080;2023-12-20T11:13:35;1.88;;;1.00;;
24143;SDS011;12307;50.828;6.080;2023-12-20T11:16:06;2.58;;;1.00;;
24143;SDS011;12307;50.828;6.080;2023-12-20T11:18:33;2.00;;;1.00;;
24143;SDS011;12307;50.828;6.080;2023-12-20T11:21:00;2.97;;;1.25;;
24143;SDS011;12307;50.828;6.080;2023-12-20T11:23:29;1.55;;;0.88;;
24143;SDS011;12307;50.828;6.080;2023-12-20T11:25:55;2.47;;;1.15;;
24143;SDS011;12307;50.828;6.080;2023-12-20T11:28:26;2.10;;;1.10;;
24143;SDS011;12307;50.828;6.080;2023-12-20T11:30:53;2.30;;;1.20;;
24143;SDS011;12307;50.828;6.080;2023-12-20T11:33:22;2.63;;;1.48;;
24143;SDS011;12307;50.828;6.080;2023-12-20T11:35:49;2.22;;;1.30;;
24143;SDS011;12307;50.828;6.080;2023-12-20T11:38:15;2.70;;;1.30;;
24143;SDS011;12307;50.828;6.080;2023-12-20T11:40:41;3.70;;;1.48;;
24143;SDS011;12307;50.828;6.080;2023-12-20T11:43:07;2.53;;;1.30;;
24143;SDS011;12307;50.828;6.080;2023-12-20T11:45:34;2.40;;;1.30;;
24143;SDS011;12307;50.828;6.080;2023-12-20T11:48:01;3.28;;;1.30;;
24143;SDS011;12307;50.828;6.080;2023-12-20T11:50:27;3.03;;;1.33;;
24143;SDS011;12307;50.828;6.080;2023-12-20T11:52:54;2.60;;;1.30;;
24143;SDS011;12307;50.828;6.080;2023-12-20T11:55:21;2.78;;;1.60;;
24143;SDS011;12307;50.828;6.080;2023-12-20T11:57:46;3.00;;;1.45;;
24143;SDS011;12307;50.828;6.080;2023-12-20T12:00:13;4.10;;;1.85;;
24143;SDS011;12307;50.828;6.080;2023-12-20T12:02:40;2.38;;;1.42;;
24143;SDS011;12307;50.828;6.080;2023-12-20T12:05:07;3.70;;;1.55;;
24143;SDS011;12307;50.828;6.080;2023-12-20T12:07:33;3.10;;;1.80;;
24143;SDS011;12307;50.828;6.080;2023-12-20T12:09:59;4.45;;;2.20;;
24143;SDS011;12307;50.828;6.080;2023-12-20T12:12:24;4.07;;;2.45;;
24143;SDS011;12307;50.828;6.080;2023-12-20T12:14:52;5.28;;;2.92;;
24143;SDS011;12307;50.828;6.080;2023-12-20T12:17:18;5.40;;;3.72;;
24143;SDS011;12307;50.828;6.080;2023-12-20T12:19:45;7.75;;;4.75;;
24143;SDS011;12307;50.828;6.080;2023-12-20T12:22:11;9.23;;;5.82;;
24143;SDS011;12307;50.828;6.080;2023-12-20T12:24:39;11.63;;;7.25;;
24143;SDS011;12307;50.828;6.080;2023-12-20T12:27:05;13.82;;;8.48;;
24143;SDS011;12307;50.828;6.080;2023-12-20T12:29:32;14.20;;;8.60;;
24143;SDS011;12307;50.828;6.080;2023-12-20T12:31:57;14.90;;;10.05;;
24143;SDS011;12307;50.828;6.080;2023-12-20T12:34:23;14.52;;;10.25;;
24143;SDS011;12307;50.828;6.080;2023-12-20T12:36:50;15.88;;;10.82;;
24143;SDS011;12307;50.828;6.080;2023-12-20T12:39:17;15.05;;;11.00;;
24143;SDS011;12307;50.828;6.080;2023-12-20T12:41:43;16.52;;;11.05;;
24143;SDS011;12307;50.828;6.080;2023-12-20T12:44:09;18.75;;;11.85;;
24143;SDS011;12307;50.828;6.080;2023-12-20T12:46:34;16.42;;;11.93;;
24143;SDS011;12307;50.828;6.080;2023-12-20T12:49:00;15.77;;;11.02;;
24143;SDS011;12307;50.828;6.080;2023-12-20T12:51:26;17.27;;;12.10;;
24143;SDS011;12307;50.828;6.080;2023-12-20T12:53:53;16.60;;;11.88;;
24143;SDS011;12307;50.828;6.080;2023-12-20T12:56:19;16.05;;;11.55;;
24143;SDS011;12307;50.828;6.080;2023-12-20T12:58:44;16.45;;;11.98;;
24143;SDS011;12307;50.828;6.080;2023-12-20T13:01:10;17.42;;;11.82;;
24143;SDS011;12307;50.828;6.080;2023-12-20T13:03:36;16.13;;;11.05;;
24143;SDS011;12307;50.828;6.080;2023-12-20T13:06:02;15.20;;;10.95;;
24143;SDS011;12307;50.828;6.080;2023-12-20T13:08:30;16.08;;;11.30;;
24143;SDS011;12307;50.828;6.080;2023-12-20T13:10:58;15.68;;;11.23;;
24143;SDS011;12307;50.828;6.080;2023-12-20T13:13:25;18.38;;;12.20;;
24143;SDS011;12307;50.828;6.080;2023-12-20T13:15:51;18.08;;;12.38;;
24143;SDS011;12307;50.828;6.080;2023-12-20T13:18:19;18.40;;;12.48;;
24143;SDS011;12307;50.828;6.080;2023-12-20T13:20:45;17.20;;;12.40;;
24143;SDS011;12307;50.828;6.080;2023-12-20T13:23:11;18.65;;;12.90;;
24143;SDS011;12307;50.828;6.080;2023-12-20T13:25:37;18.55;;;12.95;;
24143;SDS011;12307;50.828;6.080;2023-12-20T13:28:04;17.70;;;12.63;;
24143;SDS011;12307;50.828;6.080;2023-12-20T13:30:31;18.90;;;12.77;;
24143;SDS011;12307;50.828;6.080;2023-12-20T13:32:57;20.60;;;14.00;;
24143;SDS011;12307;50.828;6.080;2023-12-20T13:35:22;18.50;;;13.30;;
24143;SDS011;12307;50.828;6.080;2023-12-20T13:37:48;19.83;;;13.05;;
24143;SDS011;12307;50.828;6.080;2023-12-20T13:40:14;19.40;;;13.60;;
24143;SDS011;12307;50.828;6.080;2023-12-20T13:42:40;19.38;;;13.05;;
24143;SDS011;12307;50.828;6.080;2023-12-20T13:45:07;18.55;;;13.20;;
24143;SDS011;12307;50.828;6.080;2023-12-20T13:47:33;18.92;;;13.77;;
24143;SDS011;12307;50.828;6.080;2023-12-20T13:50:00;18.88;;;12.95;;
24143;SDS011;12307;50.828;6.080;2023-12-20T13:52:26;19.60;;;12.73;;
24143;SDS011;12307;50.828;6.080;2023-12-20T13:54:51;18.23;;;13.05;;
24143;SDS011;12307;50.828;6.080;2023-12-20T13:57:17;19.10;;;12.63;;
24143;SDS011;12307;50.828;6.080;2023-12-20T13:59:43;18.63;;;12.75;;
24143;SDS011;12307;50.828;6.080;2023-12-20T14:02:11;16.98;;;11.90;;
24143;SDS011;12307;50.828;6.080;2023-12-20T14:04:37;17.52;;;12.05;;
24143;SDS011;12307;50.828;6.080;2023-12-20T14:07:04;15.05;;;11.60;;
24143;SDS011;12307;50.828;6.080;2023-12-20T14:09:29;15.50;;;11.32;;
24143;SDS011;12307;50.828;6.080;2023-12-20T14:11:55;16.05;;;10.98;;
24143;SDS011;12307;50.828;6.080;2023-12-20T14:14:21;16.77;;;11.35;;
24143;SDS011;12307;50.828;6.080;2023-12-20T14:16:47;18.60;;;11.15;;
24143;SDS011;12307;50.828;6.080;2023-12-20T14:19:14;17.35;;;11.73;;
24143;SDS011;12307;50.828;6.080;2023-12-20T14:21:40;16.60;;;11.38;;
24143;SDS011;12307;50.828;6.080;2023-12-20T14:24:06;15.80;;;10.82;;
24143;SDS011;12307;50.828;6.080;2023-12-20T14:26:31;17.35;;;11.02;;
24143;SDS011;12307;50.828;6.080;2023-12-20T14:28:57;15.77;;;10.57;;
24143;SDS011;12307;50.828;6.080;2023-12-20T14:31:23;15.02;;;10.38;;
24143;SDS011;12307;50.828;6.080;2023-12-20T14:33:49;13.75;;;10.15;;
24143;SDS011;12307;50.828;6.080;2023-12-20T14:36:19;14.38;;;10.13;;
24143;SDS011;12307;50.828;6.080;2023-12-20T14:38:45;15.80;;;10.55;;